Time;durP1;ratioP1;P1;durP2;ratioP2;P2;SDS_P1;SDS_P2;PMS_P1;PMS_P2;Temp;Humidity;BMP_temperature;BMP_pressure;BME280_temperature;BME280_humidity;BME280_pressure;Samples;Min_cycle;Max_cycle;Signal;HPM_P1;HPM_P2
2023/12/15 00:01:30;;;;;;;13.60;7.15;;;;;;;7.20;68.46;101856.38;4208037;28;20093;-68
2023/12/15 00:03:34;;;;;;;13.30;8.63;;;;;;;7.20;68.94;101851.22;4205030;28;20115;-68
2023/12/15 00:05:37;;;;;;;12.65;7.82;;;;;;;7.09;68.71;101855.81;4205545;28;20450;-68
2023/12/15 00:07:40;;;;;;;12.23;7.80;;;;;;;7.02;69.14;101855.44;4206768;28;20491;-68
2023/12/15 00:09:43;;;;;;;13.38;8.60;;;;;;;7.00;68.93;101852.78;4200785;28;20091;-68
2023/12/15 00:11:46;;;;;;;13.70;8.05;;;;;;;7.04;68.93;101854.72;4204544;28;20487;-69
2023/12/15 00:13:59;;;;;;;10.63;7.18;;;;;;;7.10;68.95;101864.47;4208164;28;20492;-68
2023/12/15 00:16:03;;;;;;;11.82;7.80;;;;;;;7.14;68.63;101862.13;4209388;28;20396;-68
2023/12/15 00:18:06;;;;;;;12.30;7.75;;;;;;;7.18;68.86;101865.75;4204777;28;20042;-68
2023/12/15 00:20:11;;;;;;;13.13;8.00;;;;;;;7.18;68.87;101867.44;4204128;28;20533;-68
2023/12/15 00:22:14;;;;;;;13.00;7.40;;;;;;;7.16;68.53;101868.25;4205913;28;20454;-68
2023/12/15 00:24:17;;;;;;;10.38;7.10;;;;;;;7.14;67.99;101868.97;4202711;28;20049;-68
2023/12/15 00:26:20;;;;;;;14.90;8.38;;;;;;;7.17;67.92;101869.16;4202812;28;21151;-68
2023/12/15 00:28:23;;;;;;;10.07;7.30;;;;;;;7.13;67.82;101872.38;4206362;28;20118;-68
2023/12/15 00:30:25;;;;;;;10.10;6.68;;;;;;;7.09;68.02;101884.25;4207232;28;20043;-68
2023/12/15 00:32:29;;;;;;;11.88;7.65;;;;;;;7.01;68.50;101884.66;4210830;28;20032;-68
2023/12/15 00:34:32;;;;;;;10.48;7.00;;;;;;;6.96;68.23;101893.06;4214172;28;20552;-68
2023/12/15 00:36:36;;;;;;;9.75;6.63;;;;;;;6.96;67.97;101889.59;4208017;28;20067;-68
2023/12/15 00:38:39;;;;;;;10.98;6.97;;;;;;;6.96;68.08;101889.59;4207887;28;20047;-68
2023/12/15 00:40:42;;;;;;;11.25;6.93;;;;;;;6.99;68.62;101894.94;4209414;28;20063;-68
2023/12/15 00:42:45;;;;;;;11.00;7.50;;;;;;;6.98;68.62;101891.47;4210476;28;20142;-68
2023/12/15 00:44:48;;;;;;;10.60;7.30;;;;;;;7.00;68.35;101899.31;4209436;28;20035;-68
2023/12/15 00:46:51;;;;;;;11.35;7.63;;;;;;;6.99;68.46;101887.19;4207606;28;20040;-68
2023/12/15 00:48:53;;;;;;;10.50;6.70;;;;;;;7.01;68.46;101897.59;4210936;28;20077;-68
2023/12/15 00:50:57;;;;;;;13.50;7.40;;;;;;;7.04;68.15;101905.50;4210928;28;20048;-68
2023/12/15 00:53:00;;;;;;;12.77;7.40;;;;;;;7.05;68.64;101904.72;4212579;28;20074;-68
2023/12/15 00:55:04;;;;;;;9.32;6.00;;;;;;;7.09;68.53;101909.25;4204789;28;20029;-68
2023/12/15 00:57:07;;;;;;;10.10;6.55;;;;;;;7.09;67.91;101917.88;4206767;28;20071;-68
2023/12/15 00:59:10;;;;;;;11.55;7.70;;;;;;;7.06;67.63;101922.00;4204746;28;20135;-68
2023/12/15 01:01:13;;;;;;;10.27;7.05;;;;;;;6.99;68.12;101925.97;4206061;28;20419;-68
2023/12/15 01:03:15;;;;;;;11.10;7.65;;;;;;;6.95;68.24;101931.78;4209866;28;20040;-69
2023/12/15 01:05:18;;;;;;;10.30;6.75;;;;;;;6.91;68.40;101945.38;4206616;28;20044;-69
2023/12/15 01:07:20;;;;;;;12.30;7.53;;;;;;;6.84;68.10;101944.16;4205826;28;20563;-69
2023/12/15 01:09:25;;;;;;;11.15;7.43;;;;;;;6.82;68.26;101938.03;4208958;28;20063;-69
2023/12/15 01:11:27;;;;;;;11.07;7.13;;;;;;;6.80;68.72;101947.38;4206379;28;20083;-69
2023/12/15 01:13:30;;;;;;;10.50;7.35;;;;;;;6.82;68.20;101956.13;4205133;28;20127;-69
2023/12/15 01:15:34;;;;;;;11.40;7.53;;;;;;;6.83;68.64;101952.69;4204785;28;20064;-69
2023/12/15 01:17:37;;;;;;;11.65;7.63;;;;;;;6.82;68.59;101945.78;4204713;28;20035;-69
2023/12/15 01:19:40;;;;;;;10.23;7.03;;;;;;;6.79;68.42;101955.91;4202911;28;20123;-69
2023/12/15 01:21:44;;;;;;;12.35;7.90;;;;;;;6.80;69.01;101952.53;4205827;28;20044;-69
2023/12/15 01:23:47;;;;;;;13.57;7.97;;;;;;;6.82;68.38;101950.94;4206851;28;20550;-69
2023/12/15 01:25:51;;;;;;;10.82;7.57;;;;;;;6.84;68.75;101956.19;4208256;28;20040;-69
2023/12/15 01:28:03;;;;;;;12.35;7.82;;;;;;;6.86;68.55;101954.56;4207649;28;20032;-69
2023/12/15 01:30:07;;;;;;;11.60;7.82;;;;;;;6.89;68.81;101950.47;4208664;28;20036;-69
2023/12/15 01:32:11;;;;;;;10.55;7.20;;;;;;;6.88;69.30;101953.84;4207770;28;20039;-69
2023/12/15 01:34:12;;;;;;;10.68;7.10;;;;;;;6.85;68.57;101963.13;4205905;28;20111;-69
2023/12/15 01:37:06;;;;;;;10.85;7.50;;;;;;;6.83;68.75;101968.22;4209334;28;20036;-69
2023/12/15 01:39:09;;;;;;;8.95;6.10;;;;;;;6.77;68.88;101979.09;4208931;28;20078;-69
2023/12/15 01:41:13;;;;;;;8.70;6.10;;;;;;;6.84;68.72;101979.47;4204349;28;20028;-67
2023/12/15 01:43:16;;;;;;;13.15;8.65;;;;;;;6.82;68.88;101976.78;4208141;28;20051;-67
2023/12/15 01:45:19;;;;;;;11.43;7.13;;;;;;;6.82;68.81;101977.66;4206976;28;20505;-68
2023/12/15 01:47:24;;;;;;;10.13;6.82;;;;;;;6.80;69.10;101978.38;4206758;28;20433;-67
2023/12/15 01:49:28;;;;;;;14.00;7.07;;;;;;;6.75;68.89;101977.25;4206703;28;20550;-68
2023/12/15 01:51:31;;;;;;;11.50;7.90;;;;;;;6.79;68.95;101986.94;4204638;28;20032;-67
2023/12/15 01:53:34;;;;;;;13.77;7.47;;;;;;;6.80;69.72;101991.31;4203406;28;20042;-67
2023/12/15 01:55:37;;;;;;;11.30;7.40;;;;;;;6.84;69.79;101995.84;4204076;28;20475;-67
2023/12/15 01:57:43;;;;;;;9.63;6.38;;;;;;;6.86;69.88;101994.22;4209834;28;20055;-67
2023/12/15 01:59:48;;;;;;;10.68;6.47;;;;;;;6.87;70.32;102001.19;4207246;28;20089;-68
2023/12/15 02:01:51;;;;;;;12.02;7.13;;;;;;;6.88;69.58;101997.78;4209081;28;20067;-68
2023/12/15 02:03:54;;;;;;;9.50;6.32;;;;;;;6.91;69.44;102002.25;4205627;28;20063;-67
2023/12/15 02:05:57;;;;;;;11.18;7.32;;;;;;;6.92;69.71;102004.00;4206511;28;20048;-69
2023/12/15 02:08:01;;;;;;;9.60;6.88;;;;;;;6.92;69.89;102010.09;4206621;28;20070;-68
2023/12/15 02:10:04;;;;;;;10.82;7.70;;;;;;;6.93;69.57;102001.50;4206820;28;20492;-68
2023/12/15 02:12:08;;;;;;;10.07;6.68;;;;;;;6.90;69.27;102006.50;4205137;28;20117;-67
2023/12/15 02:14:12;;;;;;;10.88;6.97;;;;;;;6.91;68.99;102005.72;4200665;28;20123;-68
2023/12/15 02:16:15;;;;;;;11.45;7.60;;;;;;;6.86;69.42;102016.59;4205039;28;20044;-68
2023/12/15 02:18:18;;;;;;;9.60;6.70;;;;;;;6.88;69.14;102023.66;4207686;28;20135;-68
2023/12/15 02:20:21;;;;;;;9.98;7.00;;;;;;;6.89;68.74;102028.03;4204390;28;20098;-68
2023/12/15 02:22:26;;;;;;;9.93;6.20;;;;;;;6.89;69.22;102025.44;4204810;28;20089;-68
2023/12/15 02:24:29;;;;;;;;;;;;;;;6.74;68.20;102022.88;4205274;28;20078;-68
2023/12/15 02:26:32;;;;;;;9.98;6.18;;;;;;;6.81;68.86;102031.88;4206544;28;19935;-68
2023/12/15 02:28:34;;;;;;;10.82;7.72;;;;;;;6.88;68.12;102028.81;4206977;28;20052;-68
2023/12/15 02:30:37;;;;;;;10.15;6.70;;;;;;;6.90;68.45;102028.91;4210568;28;20119;-68
2023/12/15 02:32:40;;;;;;;8.88;6.55;;;;;;;6.89;68.69;102029.69;4208925;28;20040;-68
2023/12/15 02:34:43;;;;;;;12.90;7.40;;;;;;;6.86;68.84;102025.25;4211066;28;20028;-67
2023/12/15 02:36:46;;;;;;;10.13;6.25;;;;;;;6.88;68.48;102033.06;4209699;28;20044;-68
2023/12/15 02:38:51;;;;;;;12.63;7.40;;;;;;;6.88;68.49;102026.22;4211660;28;20054;-68
2023/12/15 02:40:54;;;;;;;;;;;;;;;6.80;68.32;102030.09;4205495;28;20488;-68
2023/12/15 02:42:57;;;;;;;15.73;8.05;;;;;;;6.84;69.04;102037.22;4214071;28;19973;-68
2023/12/15 02:45:01;;;;;;;9.68;6.57;;;;;;;6.87;69.10;102031.31;4206734;28;20047;-68
2023/12/15 02:47:05;;;;;;;10.20;7.25;;;;;;;6.86;68.87;102033.00;4209600;28;20055;-68
2023/12/15 02:49:09;;;;;;;12.25;8.30;;;;;;;6.89;68.74;102029.69;4211542;28;20024;-68
2023/12/15 02:51:12;;;;;;;12.77;7.00;;;;;;;6.89;69.00;102040.94;4206684;28;20040;-68
2023/12/15 02:53:14;;;;;;;14.35;9.07;;;;;;;6.88;69.21;102034.00;4206844;28;20064;-68
2023/12/15 02:55:18;;;;;;;13.20;8.90;;;;;;;6.91;69.17;102043.63;4208796;28;20032;-69
2023/12/15 02:57:21;;;;;;;12.90;9.25;;;;;;;6.91;68.72;102046.19;4210300;28;20041;-69
2023/12/15 02:59:24;;;;;;;13.38;8.68;;;;;;;6.91;69.16;102039.31;4210015;28;20039;-68
2023/12/15 03:01:27;;;;;;;14.95;8.65;;;;;;;6.91;69.15;102043.63;4208123;28;20419;-69
2023/12/15 03:03:30;;;;;;;14.25;9.40;;;;;;;6.90;69.54;102047.88;4209989;28;20032;-68
2023/12/15 03:05:33;;;;;;;14.18;8.40;;;;;;;6.91;69.21;102047.09;4210066;28;20118;-68
2023/12/15 03:07:36;;;;;;;11.63;8.10;;;;;;;6.91;69.56;102044.50;4211352;28;20071;-68
2023/12/15 03:09:39;;;;;;;13.70;9.05;;;;;;;6.89;69.61;102047.78;4211103;28;20741;-68
2023/12/15 03:11:42;;;;;;;16.20;10.07;;;;;;;6.89;69.16;102046.13;4208988;28;20407;-68
2023/12/15 03:13:45;;;;;;;15.35;9.38;;;;;;;6.89;69.26;102048.72;4206607;28;20037;-68
2023/12/15 03:15:48;;;;;;;15.70;9.32;;;;;;;6.91;69.59;102048.78;4188577;28;20040;-68
2023/12/15 03:17:51;;;;;;;16.73;10.00;;;;;;;6.94;69.96;102055.00;4205074;28;20040;-68
2023/12/15 03:19:54;;;;;;;18.13;11.20;;;;;;;6.91;70.03;102059.13;4187878;28;20794;-69
2023/12/15 03:21:57;;;;;;;16.35;10.00;;;;;;;6.89;70.15;102055.56;4210464;28;20052;-69
2023/12/15 03:24:00;;;;;;;15.00;10.45;;;;;;;6.87;69.85;102055.47;4208200;28;20040;-69
2023/12/15 03:26:03;;;;;;;16.83;10.55;;;;;;;6.86;70.17;102051.09;4208278;28;20028;-69
2023/12/15 03:28:07;;;;;;;15.85;9.80;;;;;;;6.85;70.11;102059.69;4208174;28;20090;-69
2023/12/15 03:30:11;;;;;;;17.55;10.80;;;;;;;6.85;69.83;102063.94;4206645;28;20097;-69
2023/12/15 03:32:13;;;;;;;16.38;9.63;;;;;;;6.83;70.07;102063.84;4209390;28;20060;-69
2023/12/15 03:34:16;;;;;;;15.82;9.98;;;;;;;6.84;70.40;102075.97;4208270;28;20039;-69
2023/12/15 03:36:19;;;;;;;18.45;10.75;;;;;;;6.84;70.27;102073.41;4207987;28;20632;-69
2023/12/15 03:38:21;;;;;;;22.88;9.57;;;;;;;6.85;69.92;102066.53;4211037;28;20036;-69
2023/12/15 03:40:26;;;;;;;16.33;10.30;;;;;;;6.79;69.57;102069.66;4207975;28;20487;-68
2023/12/15 03:42:30;;;;;;;17.08;9.88;;;;;;;6.71;69.76;102066.66;4211233;28;20047;-69
2023/12/15 03:44:36;;;;;;;13.13;8.63;;;;;;;6.70;69.85;102070.06;4210387;28;20409;-69
2023/12/15 03:46:39;;;;;;;15.20;7.10;;;;;;;6.68;70.37;102060.44;4204222;28;20039;-69
2023/12/15 03:48:41;;;;;;;10.38;6.80;;;;;;;6.63;70.18;102062.75;4210552;28;20036;-69
2023/12/15 03:50:44;;;;;;;9.13;6.50;;;;;;;6.59;70.25;102064.28;4208425;28;20067;-69
2023/12/15 03:52:47;;;;;;;8.77;6.40;;;;;;;6.56;69.76;102066.69;4211578;28;20069;-69
2023/12/15 03:54:49;;;;;;;13.05;6.97;;;;;;;6.53;70.10;102075.97;4209679;28;20078;-69
2023/12/15 03:56:56;;;;;;;10.32;7.05;;;;;;;6.52;70.38;102077.66;4205684;28;20040;-69
2023/12/15 03:58:58;;;;;;;10.50;6.35;;;;;;;6.49;70.41;102080.06;4200813;28;20033;-69
2023/12/15 04:01:02;;;;;;;9.88;6.18;;;;;;;6.49;70.42;102082.63;4211020;28;20491;-70
2023/12/15 04:03:05;;;;;;;10.80;5.93;;;;;;;6.45;70.19;102080.69;4209780;28;20040;-69
2023/12/15 04:05:09;;;;;;;9.93;6.82;;;;;;;6.44;70.37;102094.41;4203333;28;20028;-70
2023/12/15 04:07:11;;;;;;;8.90;6.15;;;;;;;6.42;70.48;102099.47;4209031;28;20040;-69
2023/12/15 04:09:14;;;;;;;11.15;6.55;;;;;;;6.39;70.66;102104.47;4209739;28;20032;-69
2023/12/15 04:11:17;;;;;;;13.68;6.80;;;;;;;6.39;70.54;102099.28;4200956;28;20048;-69
2023/12/15 04:13:20;;;;;;;9.68;6.25;;;;;;;6.36;70.72;102098.25;4209151;28;20039;-69
2023/12/15 04:15:23;;;;;;;10.68;6.72;;;;;;;6.34;70.52;102105.00;4209606;28;20036;-69
2023/12/15 04:17:27;;;;;;;12.13;6.25;;;;;;;6.27;70.76;102109.81;4209271;28;20146;-69
2023/12/15 04:19:31;;;;;;;9.63;6.50;;;;;;;6.22;71.02;102106.09;4205150;28;20024;-69
2023/12/15 04:21:34;;;;;;;9.80;6.32;;;;;;;6.23;71.00;102112.13;4208838;28;20566;-69
2023/12/15 04:23:38;;;;;;;9.95;6.22;;;;;;;6.21;71.22;102111.16;4208623;28;20453;-69
2023/12/15 04:25:41;;;;;;;9.10;6.20;;;;;;;6.21;71.13;102112.03;4209316;28;20070;-69
2023/12/15 04:27:44;;;;;;;9.90;6.15;;;;;;;6.18;70.98;102114.44;4209826;28;20036;-69
2023/12/15 04:29:47;;;;;;;8.82;5.85;;;;;;;6.15;71.16;102113.34;4209890;28;20460;-68
2023/12/15 04:31:50;;;;;;;9.63;5.82;;;;;;;6.13;71.53;102120.13;4211054;28;20098;-68
2023/12/15 04:33:54;;;;;;;10.70;6.22;;;;;;;6.11;71.43;102120.06;4209941;28;20059;-68
2023/12/15 04:35:57;;;;;;;9.52;6.80;;;;;;;6.06;71.68;102124.03;4190615;28;20044;-68
2023/12/15 04:38:00;;;;;;;11.50;7.50;;;;;;;6.04;71.56;102125.66;4209738;28;20047;-68
2023/12/15 04:40:04;;;;;;;8.80;6.43;;;;;;;6.05;71.80;102130.03;4209392;28;20028;-68
2023/12/15 04:42:06;;;;;;;8.82;5.85;;;;;;;6.04;72.19;102121.38;4208611;28;20064;-68
2023/12/15 04:44:09;;;;;;;9.60;6.50;;;;;;;6.07;71.76;102136.16;4211276;28;20044;-68
2023/12/15 04:46:12;;;;;;;10.38;6.30;;;;;;;6.05;72.00;102142.94;4207109;28;20036;-68
2023/12/15 04:48:15;;;;;;;11.77;7.88;;;;;;;6.01;72.26;102146.13;4215351;28;20114;-68
2023/12/15 04:50:20;;;;;;;10.05;6.55;;;;;;;6.01;72.33;102151.28;4209460;28;20383;-68
2023/12/15 04:52:23;;;;;;;9.55;6.20;;;;;;;5.98;72.33;102156.28;4209202;28;20032;-70
2023/12/15 04:54:25;;;;;;;9.48;6.10;;;;;;;5.97;72.70;102155.34;4208036;28;20060;-68
2023/12/15 04:56:29;;;;;;;12.07;7.13;;;;;;;5.93;72.85;102159.41;4210104;28;20407;-68
2023/12/15 04:58:33;;;;;;;8.18;5.55;;;;;;;5.91;73.08;102145.53;4208062;28;20395;-68
2023/12/15 05:00:35;;;;;;;10.40;5.97;;;;;;;5.94;72.98;102152.56;4202908;28;20560;-68
2023/12/15 05:02:38;;;;;;;7.85;5.50;;;;;;;5.92;72.95;102155.03;4206968;28;20032;-68
2023/12/15 05:04:41;;;;;;;9.75;6.38;;;;;;;5.94;73.09;102160.31;4209260;28;20592;-68
2023/12/15 05:06:45;;;;;;;8.13;5.38;;;;;;;5.95;73.29;102162.97;4208614;28;20032;-68
2023/12/15 05:08:49;;;;;;;9.02;5.65;;;;;;;6.00;73.25;102159.81;4208729;28;20063;-68
2023/12/15 05:10:52;;;;;;;8.63;5.85;;;;;;;6.04;73.35;102160.09;4213239;28;20040;-68
2023/12/15 05:12:55;;;;;;;9.00;5.10;;;;;;;6.07;73.16;102164.56;4209177;28;20668;-68
2023/12/15 05:14:58;;;;;;;9.45;5.78;;;;;;;6.13;73.20;102164.91;4209033;28;20044;-68
2023/12/15 05:17:02;;;;;;;8.75;6.15;;;;;;;6.13;73.27;102172.66;4207935;28;20046;-68
2023/12/15 05:19:05;;;;;;;10.70;6.30;;;;;;;6.16;73.06;102182.28;4203730;28;20070;-68
2023/12/15 05:21:08;;;;;;;8.52;5.30;;;;;;;6.15;73.46;102186.56;4204753;28;20627;-68
2023/12/15 05:23:14;;;;;;;10.52;7.03;;;;;;;6.13;73.23;102192.44;4207872;28;20050;-67
2023/12/15 05:25:17;;;;;;;8.20;5.47;;;;;;;6.15;72.97;102193.41;4204336;28;20067;-67
2023/12/15 05:27:20;;;;;;;8.70;4.93;;;;;;;6.16;73.18;102196.09;4206100;28;20480;-67
2023/12/15 05:29:23;;;;;;;11.80;5.88;;;;;;;6.18;73.34;102191.91;4202062;28;20036;-68
2023/12/15 05:31:25;;;;;;;8.05;5.28;;;;;;;6.21;73.19;102197.25;4209395;28;20399;-68
2023/12/15 05:33:27;;;;;;;9.57;5.68;;;;;;;6.22;73.40;102204.22;4208563;28;20036;-67
2023/12/15 05:35:31;;;;;;;9.02;5.43;;;;;;;6.22;73.46;102211.06;4210503;28;20028;-68
2023/12/15 05:37:33;;;;;;;8.35;5.32;;;;;;;6.27;73.56;102215.69;4206887;28;20044;-68
2023/12/15 05:39:38;;;;;;;9.65;5.18;;;;;;;6.31;73.17;102223.63;4210161;28;20028;-68
2023/12/15 05:41:41;;;;;;;7.50;4.43;;;;;;;6.29;73.45;102237.38;4198682;28;20048;-68
2023/12/15 05:43:47;;;;;;;7.57;4.82;;;;;;;6.30;73.24;102243.41;4205999;28;20109;-68
2023/12/15 05:45:51;;;;;;;9.20;6.57;;;;;;;6.32;72.85;102240.91;4204544;28;20131;-68
2023/12/15 05:47:54;;;;;;;12.90;6.15;;;;;;;6.32;73.34;102244.38;4206603;28;20498;-69
2023/12/15 05:49:57;;;;;;;8.18;5.18;;;;;;;6.34;73.30;102244.47;4208967;28;20062;-68
2023/12/15 05:52:00;;;;;;;8.10;5.28;;;;;;;6.36;73.17;102242.91;4204237;28;20040;-68
2023/12/15 05:54:03;;;;;;;8.20;5.15;;;;;;;6.38;73.30;102251.63;4208096;28;20043;-68
2023/12/15 05:56:09;;;;;;;11.45;6.13;;;;;;;6.42;73.54;102253.59;4208411;28;20040;-68
2023/12/15 05:58:13;;;;;;;10.13;6.03;;;;;;;6.44;72.83;102255.47;4205571;28;20059;-68
2023/12/15 06:00:16;;;;;;;10.90;6.95;;;;;;;6.41;73.37;102255.28;4206578;28;20033;-68
2023/12/15 06:02:19;;;;;;;10.60;6.63;;;;;;;6.41;73.47;102262.13;4209406;28;20048;-68
2023/12/15 06:04:22;;;;;;;12.45;7.55;;;;;;;6.45;73.60;102264.09;4208914;28;20046;-68
2023/12/15 06:06:25;;;;;;;11.60;7.03;;;;;;;6.42;73.33;102261.34;4202072;28;20044;-68
2023/12/15 06:08:28;;;;;;;14.15;8.85;;;;;;;6.39;73.10;102264.63;4209898;28;20048;-68
2023/12/15 06:10:30;;;;;;;12.98;7.68;;;;;;;6.39;73.32;102266.31;4203129;28;20040;-68
2023/12/15 06:12:35;;;;;;;15.38;9.85;;;;;;;6.43;73.45;102265.72;4220585;28;20036;-69
2023/12/15 06:14:38;;;;;;;13.32;8.80;;;;;;;6.46;73.65;102268.47;4205745;28;20139;-69
2023/12/15 06:16:41;;;;;;;12.90;7.72;;;;;;;6.50;73.43;102267.88;4207063;28;20039;-68
2023/12/15 06:18:43;;;;;;;13.55;7.07;;;;;;;6.53;73.91;102267.16;4210137;28;20050;-68
2023/12/15 06:20:46;;;;;;;15.13;8.45;;;;;;;6.54;73.64;102274.09;4210629;28;20044;-68
2023/12/15 06:22:51;;;;;;;15.52;8.63;;;;;;;6.55;73.35;102276.78;4209659;28;20402;-68
2023/12/15 06:24:57;;;;;;;15.45;8.85;;;;;;;6.53;73.26;102280.97;4206228;28;20416;-68
2023/12/15 06:26:59;;;;;;;17.10;10.05;;;;;;;6.52;73.23;102276.59;4205207;28;20070;-69
2023/12/15 06:29:03;;;;;;;13.65;8.48;;;;;;;6.54;73.68;102285.34;4206626;28;20064;-69
2023/12/15 06:31:07;;;;;;;21.55;11.60;;;;;;;6.54;73.39;102279.28;4217934;28;20040;-69
2023/12/15 06:33:09;;;;;;;19.60;10.45;;;;;;;6.50;73.75;102293.72;4204859;28;20036;-69
2023/12/15 06:35:13;;;;;;;12.15;9.10;;;;;;;6.49;73.82;102293.63;4206214;28;20388;-69
2023/12/15 06:37:15;;;;;;;15.80;9.55;;;;;;;6.49;73.57;102291.03;4204597;28;20044;-69
2023/12/15 06:39:18;;;;;;;12.55;8.63;;;;;;;6.51;73.46;102292.88;4203440;28;20040;-69
2023/12/15 06:41:21;;;;;;;12.63;8.35;;;;;;;6.47;73.72;102290.94;4193248;28;20045;-69
2023/12/15 06:43:24;;;;;;;13.95;8.82;;;;;;;6.50;73.69;102287.63;4207644;28;20098;-69
2023/12/15 06:45:29;;;;;;;12.90;8.60;;;;;;;6.49;73.85;102288.44;4203654;28;20302;-69
2023/12/15 06:47:31;;;;;;;14.98;8.88;;;;;;;6.47;73.75;102298.69;4213611;28;20036;-68
2023/12/15 06:49:34;;;;;;;12.57;8.20;;;;;;;6.46;73.18;102299.50;4214182;28;20534;-68
2023/12/15 06:51:37;;;;;;;11.15;7.60;;;;;;;6.42;73.92;102300.09;4206479;28;20041;-68
2023/12/15 06:53:40;;;;;;;12.15;7.78;;;;;;;6.39;73.23;102300.78;4210944;28;20043;-68
2023/12/15 06:55:44;;;;;;;11.02;7.30;;;;;;;6.37;74.22;102302.41;4210080;28;20047;-69
2023/12/15 06:57:47;;;;;;;12.02;7.93;;;;;;;6.36;74.25;102299.72;4211341;28;20036;-69
2023/12/15 06:59:52;;;;;;;12.98;7.20;;;;;;;6.35;74.44;102303.09;4209582;28;20036;-69
2023/12/15 07:01:56;;;;;;;12.25;7.80;;;;;;;6.38;73.94;102306.78;4212171;28;20723;-69
2023/12/15 07:03:58;;;;;;;15.23;8.02;;;;;;;6.31;74.50;102306.28;4212649;28;20065;-68
2023/12/15 07:06:01;;;;;;;12.32;7.55;;;;;;;6.31;74.27;102308.88;4208224;28;20043;-68
2023/12/15 07:08:05;;;;;;;13.77;7.38;;;;;;;6.36;74.56;102316.09;4208028;28;20392;-69
2023/12/15 07:10:08;;;;;;;13.30;8.48;;;;;;;6.42;74.24;102315.59;4210647;28;20032;-69
2023/12/15 07:12:11;;;;;;;13.95;8.13;;;;;;;6.36;74.42;102315.22;4211561;28;20047;-68
2023/12/15 07:14:13;;;;;;;10.30;7.53;;;;;;;6.35;74.60;102322.09;4208157;28;20182;-68
2023/12/15 07:16:16;;;;;;;12.23;8.60;;;;;;;6.35;74.70;102327.25;4211337;28;20574;-69
2023/12/15 07:18:20;;;;;;;12.75;8.15;;;;;;;6.45;74.31;102327.03;4211300;28;20032;-68
2023/12/15 07:20:25;;;;;;;10.18;6.45;;;;;;;6.36;74.92;102331.59;4209877;28;20036;-68
2023/12/15 07:22:28;;;;;;;11.88;7.70;;;;;;;6.33;74.56;102328.84;4209196;28;20059;-68
2023/12/15 07:24:31;;;;;;;12.25;6.68;;;;;;;6.31;74.95;102330.44;4210081;28;20578;-68
2023/12/15 07:26:34;;;;;;;11.48;7.75;;;;;;;6.35;75.31;102335.00;4210136;28;20460;-68
2023/12/15 07:28:37;;;;;;;12.10;7.93;;;;;;;6.35;74.73;102332.44;4222728;27;20039;-68
2023/12/15 07:30:40;;;;;;;11.60;8.55;;;;;;;6.38;74.85;102331.69;4205106;28;20036;-69
2023/12/15 07:32:43;;;;;;;14.15;7.90;;;;;;;6.36;75.26;102335.88;4212641;28;20469;-69
2023/12/15 07:34:48;;;;;;;16.27;8.82;;;;;;;6.38;75.29;102342.03;4207523;28;20519;-69
2023/12/15 07:36:51;;;;;;;14.20;8.43;;;;;;;6.45;74.47;102341.63;4209405;28;20062;-68
2023/12/15 07:38:54;;;;;;;13.80;8.43;;;;;;;6.50;73.75;102347.97;4206389;28;20129;-69
2023/12/15 07:40:57;;;;;;;11.73;9.25;;;;;;;6.42;74.44;102357.81;4208263;28;20436;-68
2023/12/15 07:43:00;;;;;;;13.23;9.27;;;;;;;6.35;74.47;102360.84;4208250;28;20461;-68
2023/12/15 07:45:03;;;;;;;15.30;10.15;;;;;;;6.38;74.34;102366.19;4211426;28;20562;-68
2023/12/15 07:47:06;;;;;;;14.60;10.40;;;;;;;6.41;74.02;102368.06;4208943;28;20044;-68
2023/12/15 07:49:09;;;;;;;16.00;10.07;;;;;;;6.36;74.58;102372.06;4206507;28;20516;-68
2023/12/15 07:51:18;;;;;;;17.08;10.85;;;;;;;6.37;74.53;102369.56;4209130;28;20042;-69
2023/12/15 07:53:20;;;;;;;13.75;9.82;;;;;;;6.36;74.79;102374.63;4211290;28;20044;-69
2023/12/15 07:55:24;;;;;;;16.25;10.30;;;;;;;6.34;75.09;102368.47;4212190;28;20508;-69
2023/12/15 07:57:26;;;;;;;14.00;8.73;;;;;;;6.40;75.38;102368.88;4209226;28;20044;-69
2023/12/15 07:59:29;;;;;;;14.00;9.98;;;;;;;6.41;75.08;102374.13;4210199;28;20046;-69
2023/12/15 08:01:32;;;;;;;14.05;9.40;;;;;;;6.44;75.21;102378.59;4217150;28;20060;-69
2023/12/15 08:03:34;;;;;;;21.70;12.27;;;;;;;6.52;75.02;102385.13;4203712;28;20507;-70
2023/12/15 08:05:37;;;;;;;15.90;10.98;;;;;;;6.54;75.44;102388.72;4207592;28;20436;-69
2023/12/15 08:07:42;;;;;;;17.58;11.27;;;;;;;6.60;75.43;102390.75;4209624;28;20759;-69
2023/12/15 08:09:45;;;;;;;;;;;;;;;6.55;75.35;102390.47;4209099;28;20131;-69
2023/12/15 08:11:48;;;;;;;17.13;11.18;;;;;;;6.60;74.80;102396.84;4211725;28;19924;-69
2023/12/15 08:13:51;;;;;;;17.40;11.05;;;;;;;6.61;75.01;102390.88;4213535;28;20036;-69
2023/12/15 08:15:53;;;;;;;18.30;12.25;;;;;;;6.62;74.64;102392.63;4209886;28;20123;-67
2023/12/15 08:17:56;;;;;;;20.08;13.05;;;;;;;6.62;74.70;102395.22;4207079;28;20246;-68
2023/12/15 08:19:59;;;;;;;21.83;13.02;;;;;;;6.60;75.38;102399.41;4210413;28;20119;-68
2023/12/15 08:22:02;;;;;;;18.85;12.73;;;;;;;6.57;75.17;102400.91;4211937;28;20032;-67
2023/12/15 08:24:07;;;;;;;20.27;13.07;;;;;;;6.57;74.98;102404.41;4207190;28;20090;-68
2023/12/15 08:27:00;;;;;;;22.05;13.55;;;;;;;6.60;75.10;102401.09;4205679;28;20044;-67
2023/12/15 08:29:02;;;;;;;21.17;13.95;;;;;;;6.57;75.54;102403.47;4201898;28;20094;-67
2023/12/15 08:31:06;;;;;;;21.08;13.68;;;;;;;6.66;76.06;102413.50;4212223;28;20131;-68
2023/12/15 08:33:09;;;;;;;21.33;14.38;;;;;;;6.68;75.22;102404.16;4208638;28;20153;-67
2023/12/15 08:35:12;;;;;;;19.90;13.23;;;;;;;6.75;75.27;102404.63;4204926;28;20535;-68
2023/12/15 08:37:15;;;;;;;20.27;11.73;;;;;;;6.82;75.48;102408.50;4210973;28;20522;-68
2023/12/15 08:39:18;;;;;;;19.83;13.73;;;;;;;6.77;75.38;102408.19;4206130;28;20068;-68
2023/12/15 08:41:21;;;;;;;21.67;13.80;;;;;;;6.78;75.54;102409.09;4212931;28;20032;-68
2023/12/15 08:43:23;;;;;;;19.42;13.07;;;;;;;6.86;75.68;102417.31;4210486;28;20487;-68
2023/12/15 08:45:27;;;;;;;22.45;14.90;;;;;;;6.89;75.57;102428.75;4210096;28;20036;-68
2023/12/15 08:47:29;;;;;;;22.00;14.38;;;;;;;6.88;75.41;102426.03;4214391;28;20040;-68
2023/12/15 08:49:32;;;;;;;23.30;14.40;;;;;;;6.85;75.36;102426.78;4210607;28;20044;-68
2023/12/15 08:51:36;;;;;;;19.50;12.93;;;;;;;6.90;75.54;102420.16;4205345;28;20024;-68
2023/12/15 08:53:38;;;;;;;17.67;12.27;;;;;;;6.86;75.23;102417.31;4208982;28;20410;-69
2023/12/15 08:55:42;;;;;;;19.60;13.20;;;;;;;6.81;75.21;102419.63;4208521;28;20036;-68
2023/12/15 08:57:45;;;;;;;19.77;13.15;;;;;;;6.76;75.51;102428.78;4191226;28;20079;-68
2023/12/15 08:59:48;;;;;;;20.15;12.13;;;;;;;6.79;75.87;102437.63;4204659;28;20065;-68
2023/12/15 09:01:51;;;;;;;19.73;12.23;;;;;;;6.86;75.63;102435.41;4207474;28;20032;-68
2023/12/15 09:03:54;;;;;;;19.20;13.13;;;;;;;6.86;75.59;102438.88;4215789;28;20040;-68
2023/12/15 09:05:57;;;;;;;19.33;12.85;;;;;;;6.82;75.56;102442.97;4207817;28;20050;-68
2023/12/15 09:08:20;;;;;;;24.20;12.65;;;;;;;6.74;75.76;102438.13;4213443;28;20040;-68
2023/12/15 09:10:24;;;;;;;23.52;13.13;;;;;;;6.78;75.46;102435.81;4213426;28;20044;-68
2023/12/15 09:12:28;;;;;;;19.17;12.93;;;;;;;6.81;75.48;102453.22;4214413;28;20391;-68
2023/12/15 09:14:31;;;;;;;19.45;12.75;;;;;;;6.94;75.60;102460.94;4213423;28;20495;-68
2023/12/15 09:16:34;;;;;;;17.38;11.15;;;;;;;6.91;75.79;102460.75;4209209;28;20542;-68
2023/12/15 09:18:37;;;;;;;17.40;11.95;;;;;;;6.86;75.64;102462.16;4208263;28;20036;-68
2023/12/15 09:20:39;;;;;;;18.40;11.18;;;;;;;6.87;75.34;102471.69;4207180;28;20461;-68
2023/12/15 09:22:42;;;;;;;18.15;12.02;;;;;;;6.97;75.30;102484.38;4210386;28;20426;-68
2023/12/15 09:24:46;;;;;;;19.20;11.73;;;;;;;6.99;75.69;102475.06;4206446;28;20036;-68
2023/12/15 09:26:49;;;;;;;19.25;12.45;;;;;;;6.91;75.71;102476.25;4205824;28;20055;-68
2023/12/15 09:28:54;;;;;;;17.38;11.75;;;;;;;6.92;75.73;102482.31;4210676;28;20063;-68
2023/12/15 09:30:57;;;;;;;17.15;12.07;;;;;;;6.92;75.26;102478.06;4206762;28;20036;-67
2023/12/15 09:33:01;;;;;;;19.13;12.40;;;;;;;6.95;75.46;102482.50;4217346;28;20054;-67
2023/12/15 09:35:29;;;;;;;19.63;12.05;;;;;;;7.06;75.67;102493.53;4208141;28;20032;-68
2023/12/15 09:37:32;;;;;;;24.45;12.25;;;;;;;6.90;75.56;102497.75;4205598;28;20140;-68